Time;durP1;ratioP1;P1;durP2;ratioP2;P2;SDS_P1;SDS_P2;PMS_P1;PMS_P2;Temp;Humidity;BMP_temperature;BMP_pressure;BME280_temperature;BME280_humidity;BME280_pressure;Samples;Min_cycle;Max_cycle;Signal;HPM_P1;HPM_P2
2022/07/08 00:01:45;;;;;;;;;;;16.30;99.90;;;;;;5055409;28;20190;-66
2022/07/08 00:04:13;;;;;;;;;;;16.10;99.90;;;;;;5053084;28;20210;-66
2022/07/08 00:06:41;;;;;;;;;;;15.90;99.90;;;;;;5053382;28;20194;-66
2022/07/08 00:09:10;;;;;;;;;;;15.70;99.90;;;;;;5053317;28;20683;-65
2022/07/08 00:11:37;;;;;;;;;;;15.80;99.90;;;;;;5053137;28;20620;-66
2022/07/08 00:14:05;;;;;;;;;;;16.30;99.90;;;;;;5053235;28;20202;-66
2022/07/08 00:16:37;;;;;;;;;;;16.10;99.90;;;;;;5051564;28;20556;-66
2022/07/08 00:19:05;;;;;;;;;;;16.30;99.90;;;;;;5052603;28;20205;-66
2022/07/08 00:21:32;;;;;;;;;;;16.40;99.90;;;;;;5053068;28;20194;-66
2022/07/08 00:24:00;;;;;;;;;;;16.20;99.90;;;;;;5052999;28;20578;-66
2022/07/08 00:26:28;;;;;;;;;;;16.50;99.90;;;;;;5053188;28;20672;-66
2022/07/08 00:28:56;;;;;;;;;;;16.70;99.90;;;;;;5052823;28;20203;-65
2022/07/08 00:31:23;;;;;;;;;;;17.10;99.90;;;;;;5052923;28;20252;-66
2022/07/08 00:33:53;;;;;;;;;;;16.90;99.90;;;;;;5052584;28;20199;-66
2022/07/08 00:36:20;;;;;;;;;;;16.70;99.90;;;;;;5053003;28;20640;-66
2022/07/08 00:38:48;;;;;;;;;;;16.40;99.90;;;;;;5052785;28;20198;-66
2022/07/08 00:41:16;;;;;;;;;;;16.70;99.90;;;;;;5052932;28;20619;-65
2022/07/08 00:43:45;;;;;;;;;;;16.80;99.90;;;;;;5052034;28;20214;-65
2022/07/08 00:46:13;;;;;;;;;;;16.50;99.90;;;;;;5049088;28;20679;-66
2022/07/08 00:48:42;;;;;;;;;;;16.40;99.90;;;;;;5052312;28;20212;-66
2022/07/08 00:51:12;;;;;;;;;;;16.80;99.90;;;;;;5052707;28;20245;-65
2022/07/08 00:53:41;;;;;;;;;;;16.70;99.90;;;;;;5052474;28;20706;-65
2022/07/08 00:56:10;;;;;;;;;;;16.70;99.90;;;;;;5052487;28;20198;-65
2022/07/08 00:58:38;;;;;;;;;;;16.50;99.90;;;;;;5052344;28;20207;-65
2022/07/08 01:01:06;;;;;;;;;;;16.70;99.90;;;;;;5052261;28;20216;-65
2022/07/08 01:03:34;;;;;;;;;;;16.30;99.90;;;;;;5052039;28;20207;-65
2022/07/08 01:06:02;;;;;;;;;;;16.40;99.90;;;;;;5052545;28;20202;-65
2022/07/08 01:08:31;;;;;;;;;;;16.30;99.90;;;;;;5052576;28;20552;-65
2022/07/08 01:10:59;;;;;;;;;;;16.50;99.90;;;;;;5052335;28;20203;-65
2022/07/08 01:13:27;;;;;;;;;;;17.00;99.90;;;;;;5051780;28;20198;-65
2022/07/08 01:15:55;;;;;;;;;;;17.40;99.90;;;;;;5052317;28;20194;-65
2022/07/08 01:18:23;;;;;;;;;;;17.70;99.90;;;;;;5046924;28;20197;-65
2022/07/08 01:20:52;;;;;;;;;;;17.40;99.90;;;;;;5054957;28;20289;-65
2022/07/08 01:23:20;;;;;;;;;;;17.10;99.90;;;;;;5055097;28;20260;-65
2022/07/08 01:25:48;;;;;;;;;;;17.00;99.90;;;;;;5051200;28;20248;-65
2022/07/08 01:28:16;;;;;;;;;;;16.80;99.90;;;;;;5053470;28;20268;-65
2022/07/08 01:30:44;;;;;;;;;;;16.70;99.90;;;;;;5049335;28;20199;-65
2022/07/08 01:33:12;;;;;;;;;;;16.80;99.90;;;;;;5029439;28;20232;-65
2022/07/08 01:35:40;;;;;;;;;;;16.70;99.90;;;;;;5054253;28;20217;-65
2022/07/08 01:38:09;;;;;;;;;;;16.80;99.90;;;;;;5057258;28;20248;-65
2022/07/08 01:40:37;;;;;;;;;;;16.80;99.90;;;;;;5053739;28;20201;-65
2022/07/08 01:43:08;;;;;;;;;;;16.80;99.90;;;;;;5057030;28;20198;-68
2022/07/08 01:45:35;;;;;;;;;;;16.70;99.90;;;;;;5059017;28;20210;-65
2022/07/08 01:48:03;;;;;;;;;;;16.60;99.90;;;;;;5049845;28;20579;-65
2022/07/08 01:50:31;;;;;;;;;;;16.50;99.90;;;;;;5049037;28;20201;-66
2022/07/08 01:52:59;;;;;;;;;;;16.20;99.90;;;;;;5055387;28;20327;-65
2022/07/08 01:55:28;;;;;;;;;;;16.40;99.90;;;;;;5052886;28;20249;-66
2022/07/08 01:57:56;;;;;;;;;;;16.40;99.90;;;;;;5055877;28;20198;-66
2022/07/08 02:00:24;;;;;;;;;;;16.30;99.90;;;;;;5050898;28;20202;-66
2022/07/08 02:02:52;;;;;;;;;;;16.10;99.90;;;;;;5048715;28;20608;-65
2022/07/08 02:05:19;;;;;;;;;;;16.10;99.90;;;;;;5053109;28;20206;-66
2022/07/08 02:07:47;;;;;;;;;;;16.10;99.90;;;;;;5056056;28;20630;-66
2022/07/08 02:10:15;;;;;;;;;;;16.00;99.90;;;;;;5050633;28;20264;-65
2022/07/08 02:12:43;;;;;;;;;;;15.80;99.90;;;;;;5053414;28;20198;-66
2022/07/08 02:15:11;;;;;;;;;;;16.00;99.90;;;;;;5046448;28;20194;-66
2022/07/08 02:17:39;;;;;;;;;;;16.10;99.90;;;;;;5049995;28;20213;-66
2022/07/08 02:20:08;;;;;;;;;;;16.70;99.90;;;;;;5052724;28;20205;-66
2022/07/08 02:22:36;;;;;;;;;;;16.80;99.90;;;;;;5051230;28;20225;-66
2022/07/08 02:25:04;;;;;;;;;;;16.70;99.90;;;;;;5055978;28;20248;-65
2022/07/08 02:27:32;;;;;;;;;;;16.50;99.90;;;;;;5055605;28;20232;-65
2022/07/08 02:30:01;;;;;;;;;;;16.30;99.90;;;;;;5054243;28;20195;-66
2022/07/08 02:32:29;;;;;;;;;;;16.10;99.90;;;;;;5051083;28;20190;-64
2022/07/08 02:34:57;;;;;;;;;;;15.80;99.90;;;;;;5050148;28;20199;-65
2022/07/08 02:37:24;;;;;;;;;;;15.60;99.90;;;;;;5053670;28;20487;-65
2022/07/08 02:39:52;;;;;;;;;;;15.50;99.90;;;;;;5052432;28;20675;-64
2022/07/08 02:42:20;;;;;;;;;;;15.40;99.90;;;;;;5051961;28;20194;-66
2022/07/08 02:44:48;;;;;;;;;;;15.40;99.90;;;;;;5057283;28;20274;-66
2022/07/08 02:47:17;;;;;;;;;;;15.40;99.90;;;;;;5047075;28;20203;-65
2022/07/08 02:49:44;;;;;;;;;;;15.30;99.90;;;;;;5050630;28;20206;-66
2022/07/08 02:52:12;;;;;;;;;;;15.20;99.90;;;;;;5049020;28;20233;-65
2022/07/08 02:54:40;;;;;;;;;;;15.30;99.90;;;;;;5052263;28;20198;-66
2022/07/08 02:57:08;;;;;;;;;;;15.20;99.90;;;;;;5049817;28;20199;-66
2022/07/08 02:59:36;;;;;;;;;;;15.20;99.90;;;;;;5052016;28;20228;-65
2022/07/08 03:02:04;;;;;;;;;;;15.20;99.90;;;;;;5047307;28;20202;-64
2022/07/08 03:04:34;;;;;;;;;;;15.20;99.90;;;;;;5048306;28;20198;-65
2022/07/08 03:07:02;;;;;;;;;;;15.10;99.90;;;;;;5051822;28;20659;-65
2022/07/08 03:09:30;;;;;;;;;;;15.30;99.90;;;;;;5048002;28;20190;-64
2022/07/08 03:11:58;;;;;;;;;;;15.20;99.90;;;;;;5055019;28;20194;-65
2022/07/08 03:14:26;;;;;;;;;;;15.40;99.90;;;;;;5057038;28;20202;-65
2022/07/08 03:16:53;;;;;;;;;;;15.90;99.90;;;;;;5058174;28;20201;-65
2022/07/08 03:19:21;;;;;;;;;;;16.30;99.90;;;;;;5052889;28;20190;-65
2022/07/08 03:21:50;;;;;;;;;;;16.50;99.90;;;;;;5051569;28;20625;-65
2022/07/08 03:24:18;;;;;;;;;;;16.30;99.90;;;;;;5053367;28;20213;-65
2022/07/08 03:26:46;;;;;;;;;;;16.20;99.90;;;;;;5054111;28;20202;-65
2022/07/08 03:29:14;;;;;;;;;;;16.00;99.90;;;;;;5054171;28;20245;-65
2022/07/08 03:31:41;;;;;;;;;;;15.80;99.90;;;;;;5058278;28;20202;-65
2022/07/08 03:34:09;;;;;;;;;;;15.80;99.90;;;;;;5060905;28;20248;-65
2022/07/08 03:36:37;;;;;;;;;;;15.60;99.90;;;;;;5061435;28;20675;-65
2022/07/08 03:39:06;;;;;;;;;;;15.50;99.90;;;;;;5049621;28;20195;-65
2022/07/08 03:41:33;;;;;;;;;;;15.50;99.90;;;;;;5050406;28;20264;-65
2022/07/08 03:44:01;;;;;;;;;;;15.70;99.90;;;;;;5050415;28;20207;-65
2022/07/08 03:46:30;;;;;;;;;;;15.90;99.90;;;;;;5053545;28;20198;-66
2022/07/08 03:48:58;;;;;;;;;;;16.00;99.90;;;;;;5052342;28;20210;-65
2022/07/08 03:51:26;;;;;;;;;;;15.90;99.90;;;;;;5058830;28;20737;-65
2022/07/08 03:53:54;;;;;;;;;;;15.90;99.90;;;;;;5057274;28;20194;-66
2022/07/08 03:56:23;;;;;;;;;;;15.60;99.90;;;;;;5053394;28;20202;-66
2022/07/08 03:58:50;;;;;;;;;;;15.40;99.90;;;;;;5055123;28;20202;-65
2022/07/08 04:01:18;;;;;;;;;;;15.40;99.90;;;;;;5053109;28;20202;-64
2022/07/08 04:03:46;;;;;;;;;;;15.30;99.90;;;;;;5054478;28;20206;-65
2022/07/08 04:06:14;;;;;;;;;;;15.00;99.90;;;;;;5057285;28;20588;-65
2022/07/08 04:08:42;;;;;;;;;;;15.00;99.90;;;;;;5053431;28;20488;-65
2022/07/08 04:11:10;;;;;;;;;;;15.00;99.90;;;;;;5056080;28;20186;-65
2022/07/08 04:13:40;;;;;;;;;;;14.90;99.90;;;;;;5054053;28;20199;-65
2022/07/08 04:16:12;;;;;;;;;;;14.70;99.90;;;;;;5052118;28;20206;-65
2022/07/08 04:18:40;;;;;;;;;;;14.70;99.90;;;;;;5050673;28;20582;-65
2022/07/08 04:21:08;;;;;;;;;;;14.60;99.90;;;;;;5050458;28;20194;-65
2022/07/08 04:23:37;;;;;;;;;;;14.30;99.90;;;;;;5050241;28;20687;-64
2022/07/08 04:26:05;;;;;;;;;;;14.20;99.90;;;;;;5049634;28;20194;-65
2022/07/08 04:28:33;;;;;;;;;;;14.10;99.90;;;;;;5050291;28;20698;-65
2022/07/08 04:31:02;;;;;;;;;;;14.10;99.90;;;;;;5054912;28;20206;-65
2022/07/08 04:33:30;;;;;;;;;;;14.00;99.90;;;;;;5056938;28;20202;-66
2022/07/08 04:35:58;;;;;;;;;;;14.10;99.90;;;;;;5041785;28;20276;-65
2022/07/08 04:38:25;;;;;;;;;;;14.20;99.90;;;;;;5034918;28;20210;-64
2022/07/08 04:40:54;;;;;;;;;;;14.10;99.90;;;;;;5035222;28;20687;-65
2022/07/08 04:43:21;;;;;;;;;;;14.00;99.90;;;;;;5034561;28;20210;-64
2022/07/08 04:45:49;;;;;;;;;;;14.00;99.90;;;;;;5034703;28;20353;-64
2022/07/08 04:48:18;;;;;;;;;;;14.00;99.90;;;;;;5036241;28;20206;-64
2022/07/08 04:50:46;;;;;;;;;;;14.10;99.90;;;;;;5033528;28;20198;-64
2022/07/08 04:53:14;;;;;;;;;;;14.20;99.90;;;;;;5034940;28;20297;-64
2022/07/08 04:55:42;;;;;;;;;;;14.30;99.90;;;;;;5032676;28;20206;-65
2022/07/08 04:58:09;;;;;;;;;;;14.40;99.90;;;;;;5034759;28;20230;-65
2022/07/08 05:00:37;;;;;;;;;;;14.50;99.90;;;;;;5034080;28;20264;-64
2022/07/08 05:03:05;;;;;;;;;;;14.80;99.90;;;;;;5033450;28;20190;-66
2022/07/08 05:05:34;;;;;;;;;;;15.20;99.90;;;;;;5031618;28;20198;-65
2022/07/08 05:08:02;;;;;;;;;;;15.50;99.90;;;;;;5034348;28;20247;-64
2022/07/08 05:10:30;;;;;;;;;;;15.40;99.90;;;;;;5034300;28;20226;-67
2022/07/08 05:12:58;;;;;;;;;;;15.40;99.90;;;;;;5035237;28;20211;-67
2022/07/08 05:15:26;;;;;;;;;;;15.50;99.90;;;;;;5031471;28;20308;-64
2022/07/08 05:17:54;;;;;;;;;;;15.60;99.90;;;;;;5034597;28;20198;-64
2022/07/08 05:20:23;;;;;;;;;;;15.50;99.90;;;;;;5036220;28;20209;-66
2022/07/08 05:22:52;;;;;;;;;;;15.50;99.90;;;;;;5033309;28;20885;-64
2022/07/08 05:25:19;;;;;;;;;;;15.40;99.90;;;;;;5031016;28;20222;-65
2022/07/08 05:27:47;;;;;;;;;;;15.30;99.90;;;;;;5033251;28;20210;-67
2022/07/08 05:30:15;;;;;;;;;;;15.10;99.90;;;;;;5034162;28;20209;-65
2022/07/08 05:32:43;;;;;;;;;;;15.00;99.90;;;;;;5033508;28;20275;-65
2022/07/08 05:35:11;;;;;;;;;;;14.90;99.90;;;;;;5032976;28;20739;-64
2022/07/08 05:37:39;;;;;;;;;;;15.00;99.90;;;;;;5035675;28;20213;-64
2022/07/08 05:40:09;;;;;;;;;;;15.10;99.90;;;;;;5031919;28;20205;-65
2022/07/08 05:42:37;;;;;;;;;;;15.50;99.90;;;;;;5033245;28;20834;-65
2022/07/08 05:45:06;;;;;;;;;;;15.30;99.90;;;;;;5033379;28;20205;-64
2022/07/08 05:47:34;;;;;;;;;;;15.40;99.90;;;;;;5036088;28;20213;-64
2022/07/08 05:50:01;;;;;;;;;;;15.50;99.90;;;;;;5035083;28;20198;-64
2022/07/08 05:52:30;;;;;;;;;;;15.50;99.90;;;;;;5033311;28;20260;-64
2022/07/08 05:54:57;;;;;;;;;;;15.40;99.90;;;;;;5032280;28;20206;-64
2022/07/08 05:57:27;;;;;;;;;;;15.50;99.90;;;;;;5032763;28;20208;-65
2022/07/08 05:59:54;;;;;;;;;;;15.60;99.90;;;;;;5033417;28;20287;-65
2022/07/08 06:02:22;;;;;;;;;;;15.70;99.90;;;;;;5030608;28;21282;-65
2022/07/08 06:04:50;;;;;;;;;;;15.80;99.90;;;;;;5031855;28;20210;-65
2022/07/08 06:07:18;;;;;;;;;;;16.00;99.90;;;;;;5032002;28;20203;-66
2022/07/08 06:09:45;;;;;;;;;;;15.80;99.90;;;;;;5034481;28;20209;-65
2022/07/08 06:12:13;;;;;;;;;;;15.70;99.90;;;;;;5032993;28;20934;-65
2022/07/08 06:14:42;;;;;;;;;;;15.90;99.90;;;;;;5034268;28;20217;-65
2022/07/08 06:17:10;;;;;;;;;;;15.90;99.90;;;;;;5040048;28;20206;-64
2022/07/08 06:19:38;;;;;;;;;;;16.20;99.90;;;;;;5048227;28;20199;-64
2022/07/08 06:22:06;;;;;;;;;;;16.20;99.90;;;;;;5048950;28;20253;-64
2022/07/08 06:24:34;;;;;;;;;;;16.30;99.90;;;;;;5050725;28;20721;-65
2022/07/08 06:27:02;;;;;;;;;;;16.30;99.90;;;;;;5052591;28;20190;-64
2022/07/08 06:29:29;;;;;;;;;;;16.20;99.90;;;;;;5049484;28;20206;-62
2022/07/08 06:31:59;;;;;;;;;;;16.30;99.90;;;;;;5047697;28;20205;-64
2022/07/08 06:34:27;;;;;;;;;;;16.30;99.90;;;;;;5057137;28;20287;-63
2022/07/08 06:36:55;;;;;;;;;;;16.20;99.90;;;;;;5049986;28;20256;-64
2022/07/08 06:39:23;;;;;;;;;;;16.30;99.90;;;;;;5049773;28;20255;-64
2022/07/08 06:41:50;;;;;;;;;;;16.50;99.90;;;;;;5051669;28;20635;-64
2022/07/08 06:44:18;;;;;;;;;;;16.70;99.90;;;;;;5052050;28;20252;-64
2022/07/08 06:46:46;;;;;;;;;;;16.80;99.90;;;;;;5055400;28;20202;-64
2022/07/08 06:49:15;;;;;;;;;;;16.90;99.90;;;;;;5055197;28;20643;-64
2022/07/08 06:51:43;;;;;;;;;;;16.90;99.90;;;;;;5055671;28;20202;-64
2022/07/08 06:56:56;;;;;;;;;;;16.90;99.90;;;;;;5055778;28;20626;-64
2022/07/08 06:59:24;;;;;;;;;;;16.90;99.90;;;;;;5055253;28;20233;-64
2022/07/08 07:01:54;;;;;;;;;;;16.80;99.90;;;;;;5055101;28;20666;-63
2022/07/08 07:04:23;;;;;;;;;;;16.80;99.90;;;;;;5055201;28;20205;-64
2022/07/08 07:06:50;;;;;;;;;;;16.80;99.90;;;;;;5055375;28;20198;-64
2022/07/08 07:09:18;;;;;;;;;;;16.90;99.90;;;;;;5055280;28;20206;-67
2022/07/08 07:11:46;;;;;;;;;;;16.80;99.90;;;;;;5055171;28;20243;-66
2022/07/08 07:14:14;;;;;;;;;;;16.70;99.90;;;;;;5055070;28;20256;-66
2022/07/08 07:16:41;;;;;;;;;;;16.70;99.90;;;;;;5055001;28;20248;-67
2022/07/08 07:19:09;;;;;;;;;;;16.90;99.90;;;;;;5055176;28;20648;-67
2022/07/08 07:21:38;;;;;;;;;;;17.30;99.90;;;;;;5054869;28;20194;-66
2022/07/08 07:24:07;;;;;;;;;;;17.50;99.90;;;;;;5054863;28;20202;-66
2022/07/08 07:26:36;;;;;;;;;;;17.80;99.90;;;;;;5055004;28;20647;-66
2022/07/08 07:29:04;;;;;;;;;;;17.80;99.90;;;;;;5054833;28;20260;-66
2022/07/08 07:31:31;;;;;;;;;;;17.70;99.90;;;;;;5054808;28;20202;-67
2022/07/08 07:33:59;;;;;;;;;;;17.60;99.90;;;;;;5054530;28;20202;-66
2022/07/08 07:36:27;;;;;;;;;;;17.70;99.90;;;;;;5054843;28;20244;-66
2022/07/08 07:38:56;;;;;;;;;;;17.70;99.90;;;;;;5054844;28;20198;-67
2022/07/08 07:41:24;;;;;;;;;;;17.80;99.90;;;;;;5054738;28;20576;-67
2022/07/08 07:43:52;;;;;;;;;;;17.70;99.90;;;;;;5077645;22;20202;-68
2022/07/08 07:46:19;;;;;;;;;;;17.70;99.90;;;;;;5052950;28;20234;-68
2022/07/08 07:48:47;;;;;;;;;;;17.80;99.90;;;;;;5052878;28;20289;-69
2022/07/08 07:51:15;;;;;;;;;;;17.90;99.90;;;;;;5053252;28;20202;-69
2022/07/08 07:53:43;;;;;;;;;;;17.90;99.90;;;;;;5052948;28;20311;-68
2022/07/08 07:56:12;;;;;;;;;;;18.00;99.90;;;;;;5053320;28;20259;-70
2022/07/08 07:58:39;;;;;;;;;;;18.20;99.90;;;;;;5053245;28;20236;-70
2022/07/08 08:01:07;;;;;;;;;;;18.40;99.90;;;;;;5053260;28;20220;-71
2022/07/08 08:03:35;;;;;;;;;;;18.50;99.90;;;;;;5052629;28;20201;-70
2022/07/08 08:06:06;;;;;;;;;;;18.90;99.90;;;;;;5052914;28;20568;-71
2022/07/08 08:08:33;;;;;;;;;;;19.20;99.80;;;;;;5046844;28;20225;-70
2022/07/08 08:11:01;;;;;;;;;;;19.50;99.20;;;;;;5052824;28;20202;-70
2022/07/08 08:13:31;;;;;;;;;;;19.80;99.40;;;;;;5052697;28;20198;-70
2022/07/08 08:15:58;;;;;;;;;;;20.00;99.50;;;;;;5052849;28;20607;-70
2022/07/08 08:18:26;;;;;;;;;;;20.30;99.80;;;;;;5052785;28;20194;-70
2022/07/08 08:20:54;;;;;;;;;;;20.30;98.30;;;;;;5052387;28;20229;-70
2022/07/08 08:23:22;;;;;;;;;;;20.50;97.50;;;;;;5052542;28;20201;-70
2022/07/08 08:25:51;;;;;;;;;;;20.90;97.40;;;;;;5052711;28;20256;-70
2022/07/08 08:28:18;;;;;;;;;;;21.20;97.10;;;;;;5052699;28;20198;-69
2022/07/08 08:30:48;;;;;;;;;;;21.50;96.80;;;;;;5052607;28;20663;-70
2022/07/08 08:33:15;;;;;;;;;;;21.20;96.60;;;;;;5052485;28;20198;-70
2022/07/08 08:35:43;;;;;;;;;;;20.80;96.60;;;;;;5052364;28;20210;-70
2022/07/08 08:38:11;;;;;;;;;;;20.50;96.90;;;;;;5052814;28;20675;-70
2022/07/08 08:40:39;;;;;;;;;;;20.30;97.30;;;;;;5052587;28;20292;-70
2022/07/08 08:43:07;;;;;;;;;;;20.50;97.60;;;;;;5046101;28;20198;-71
2022/07/08 08:45:40;;;;;;;;;;;20.70;97.20;;;;;;4982220;28;1856736;-71
2022/07/08 08:48:11;;;;;;;;;;;20.70;97.20;;;;;;5048168;28;20617;-68
2022/07/08 08:50:56;;;;;;;;;;;21.00;97.30;;;;;;5053324;28;20238;-70
2022/07/08 08:53:29;;;;;;;;;;;21.10;96.30;;;;;;5053162;28;20202;-70
2022/07/08 08:55:59;;;;;;;;;;;21.10;96.20;;;;;;5053166;28;20623;-70
2022/07/08 08:58:27;;;;;;;;;;;21.10;96.10;;;;;;5053182;28;20251;-70
2022/07/08 09:00:54;;;;;;;;;;;21.50;96.80;;;;;;5053503;28;20264;-70
2022/07/08 09:03:24;;;;;;;;;;;21.60;95.70;;;;;;5053053;28;20565;-70
2022/07/08 09:05:52;;;;;;;;;;;21.50;95.50;;;;;;5052702;28;20204;-70
2022/07/08 09:08:19;;;;;;;;;;;21.60;96.30;;;;;;5052275;28;20252;-70
2022/07/08 09:10:47;;;;;;;;;;;21.40;95.50;;;;;;5052993;28;20206;-71
2022/07/08 09:13:16;;;;;;;;;;;21.30;95.70;;;;;;5052645;28;20260;-70
2022/07/08 09:15:45;;;;;;;;;;;21.40;96.00;;;;;;5052749;28;20683;-70
2022/07/08 09:18:13;;;;;;;;;;;21.30;95.60;;;;;;5048276;28;20206;-70
2022/07/08 09:20:43;;;;;;;;;;;21.20;96.20;;;;;;5047055;28;20202;-70
2022/07/08 09:23:15;;;;;;;;;;;21.10;96.30;;;;;;5050497;28;20232;-70
2022/07/08 09:25:43;;;;;;;;;;;20.90;96.50;;;;;;5052352;28;20260;-70
2022/07/08 09:28:11;;;;;;;;;;;20.90;95.80;;;;;;5052398;28;20283;-70
2022/07/08 09:30:41;;;;;;;;;;;21.20;96.20;;;;;;5052552;28;20202;-70
2022/07/08 09:33:11;;;;;;;;;;;21.60;96.10;;;;;;5052802;28;20194;-70
2022/07/08 09:35:39;;;;;;;;;;;22.00;95.50;;;;;;5052312;28;20198;-70
2022/07/08 09:38:09;;;;;;;;;;;22.40;94.80;;;;;;5052422;28;20713;-70
2022/07/08 09:40:37;;;;;;;;;;;23.10;94.50;;;;;;5052370;28;20622;-70
2022/07/08 09:43:11;;;;;;;;;;;23.30;94.00;;;;;;5052039;28;20198;-70
2022/07/08 09:45:39;;;;;;;;;;;23.20;93.60;;;;;;5051922;28;20202;-70
2022/07/08 09:48:08;;;;;;;;;;;22.80;93.50;;;;;;5052332;28;20477;-69
2022/07/08 09:50:37;;;;;;;;;;;22.90;93.50;;;;;;5051907;28;20221;-71
2022/07/08 09:53:28;;;;;;;;;;;22.90;93.70;;;;;;5048060;28;20288;-70
2022/07/08 09:55:58;;;;;;;;;;;23.10;93.40;;;;;;5052162;28;20212;-70
2022/07/08 09:58:27;;;;;;;;;;;23.10;94.00;;;;;;5052097;28;20206;-70
2022/07/08 10:00:56;;;;;;;;;;;23.10;93.00;;;;;;5052040;28;20206;-70
2022/07/08 10:03:24;;;;;;;;;;;23.30;94.20;;;;;;5051714;28;20198;-70
2022/07/08 10:05:52;;;;;;;;;;;23.80;93.50;;;;;;5051566;28;20565;-70
2022/07/08 10:08:20;;;;;;;;;;;24.10;92.40;;;;;;5052044;28;20260;-70
2022/07/08 10:10:49;;;;;;;;;;;24.50;92.00;;;;;;5034176;28;20198;-71
2022/07/08 10:13:19;;;;;;;;;;;24.80;92.10;;;;;;5051723;28;20250;-72
2022/07/08 10:15:48;;;;;;;;;;;25.10;92.00;;;;;;5051658;28;20195;-70
2022/07/08 10:18:18;;;;;;;;;;;25.40;91.00;;;;;;5051709;28;20289;-70
2022/07/08 10:20:47;;;;;;;;;;;24.90;90.10;;;;;;5051278;28;20202;-70
2022/07/08 10:23:17;;;;;;;;;;;24.20;91.10;;;;;;5051545;28;20198;-70
2022/07/08 10:25:45;;;;;;;;;;;24.00;91.30;;;;;;5051670;28;20205;-70
2022/07/08 10:28:14;;;;;;;;;;;23.90;91.00;;;;;;5051752;28;20659;-70
2022/07/08 10:31:00;;;;;;;;;;;23.80;91.50;;;;;;5051588;28;20210;-71
2022/07/08 10:33:29;;;;;;;;;;;23.90;91.00;;;;;;5045076;28;20194;-70
2022/07/08 10:36:02;;;;;;;;;;;24.60;90.30;;;;;;5044975;28;20206;-70
2022/07/08 10:38:31;;;;;;;;;;;25.10;91.50;;;;;;5051725;28;20202;-70
2022/07/08 10:41:02;;;;;;;;;;;25.80;90.50;;;;;;5051647;28;20264;-70
2022/07/08 10:43:32;;;;;;;;;;;25.90;90.10;;;;;;5051007;28;20253;-70
2022/07/08 10:46:02;;;;;;;;;;;26.20;90.60;;;;;;5051037;28;20199;-68
2022/07/08 10:48:30;;;;;;;;;;;26.40;88.70;;;;;;5051749;28;20635;-71
2022/07/08 10:50:57;;;;;;;;;;;26.20;87.10;;;;;;5046976;28;20203;-72
2022/07/08 10:53:48;;;;;;;;;;;26.10;87.00;;;;;;5051155;28;20277;-70
2022/07/08 10:56:31;;;;;;;;;;;26.10;87.70;;;;;;5051244;28;20729;-70
2022/07/08 10:59:17;;;;;;;;;;;26.10;87.50;;;;;;5050617;28;20296;-71
2022/07/08 11:01:45;;;;;;;;;;;26.00;86.50;;;;;;5051473;28;20202;-70
2022/07/08 11:04:19;;;;;;;;;;;26.10;86.40;;;;;;5050922;28;20203;-70
2022/07/08 11:06:48;;;;;;;;;;;26.30;86.00;;;;;;5051071;28;20212;-71
2022/07/08 11:09:17;;;;;;;;;;;26.40;86.50;;;;;;5051394;28;20694;-71
2022/07/08 11:11:45;;;;;;;;;;;26.30;85.10;;;;;;5051113;28;20210;-71
2022/07/08 11:14:13;;;;;;;;;;;26.30;86.20;;;;;;5051024;28;20557;-70
2022/07/08 11:16:42;;;;;;;;;;;26.50;85.20;;;;;;5051157;28;20202;-70
2022/07/08 11:19:10;;;;;;;;;;;26.70;84.90;;;;;;5051030;28;20205;-70
2022/07/08 11:21:38;;;;;;;;;;;26.70;84.30;;;;;;5045668;28;20213;-72
2022/07/08 11:24:20;;;;;;;;;;;27.00;83.30;;;;;;5051293;28;20288;-71
2022/07/08 11:26:51;;;;;;;;;;;27.00;83.00;;;;;;5051044;28;20256;-71
2022/07/08 11:29:20;;;;;;;;;;;27.10;83.20;;;;;;5051170;28;20626;-70
2022/07/08 11:31:56;;;;;;;;;;;27.30;82.60;;;;;;5054331;28;20249;-70
2022/07/08 11:34:24;;;;;;;;;;;27.40;81.20;;;;;;5054734;28;20203;-70
2022/07/08 11:36:55;;;;;;;;;;;27.90;81.20;;;;;;5054572;28;20671;-71
2022/07/08 11:39:23;;;;;;;;;;;28.20;80.50;;;;;;5048423;28;20667;-70
2022/07/08 11:41:51;;;;;;;;;;;28.00;80.30;;;;;;5048459;28;20326;-70
2022/07/08 11:44:20;;;;;;;;;;;28.20;80.40;;;;;;5054199;28;20257;-71
2022/07/08 11:46:48;;;;;;;;;;;28.30;80.40;;;;;;5043919;28;20210;-69
2022/07/08 11:49:18;;;;;;;;;;;28.10;79.80;;;;;;5051675;28;20210;-70
2022/07/08 11:51:46;;;;;;;;;;;28.10;79.70;;;;;;5052317;28;20256;-69
2022/07/08 11:54:14;;;;;;;;;;;28.20;78.40;;;;;;5052261;28;20201;-70
2022/07/08 11:56:43;;;;;;;;;;;28.00;77.90;;;;;;5049702;28;20198;-71
2022/07/08 11:59:10;;;;;;;;;;;27.60;77.00;;;;;;5048877;28;20249;-71
2022/07/08 12:01:39;;;;;;;;;;;27.50;77.80;;;;;;5053589;28;20252;-70
2022/07/08 12:04:07;;;;;;;;;;;27.60;78.60;;;;;;5045783;28;20324;-69
2022/07/08 12:06:36;;;;;;;;;;;27.70;77.80;;;;;;5049595;28;20288;-70
2022/07/08 12:09:09;;;;;;;;;;;28.20;77.90;;;;;;5047051;28;20317;-70
2022/07/08 12:11:41;;;;;;;;;;;28.60;77.70;;;;;;5053701;28;20203;-72
2022/07/08 12:14:10;;;;;;;;;;;28.40;76.60;;;;;;5053225;28;20209;-70
2022/07/08 12:16:42;;;;;;;;;;;27.80;78.80;;;;;;5051588;28;20211;-71
2022/07/08 12:19:29;;;;;;;;;;;27.20;78.40;;;;;;5049347;28;20225;-70
2022/07/08 12:21:59;;;;;;;;;;;27.00;79.20;;;;;;5049255;28;20609;-69
2022/07/08 12:24:32;;;;;;;;;;;26.70;78.80;;;;;;5047745;28;20252;-70
2022/07/08 12:27:00;;;;;;;;;;;27.00;77.70;;;;;;5052045;28;20205;-70
2022/07/08 12:29:28;;;;;;;;;;;27.40;77.20;;;;;;5048554;28;20205;-70
2022/07/08 12:32:03;;;;;;;;;;;27.60;77.00;;;;;;5052810;28;20199;-71
2022/07/08 12:34:31;;;;;;;;;;;27.90;77.90;;;;;;5047625;28;20198;-70
2022/07/08 12:37:13;;;;;;;;;;;27.90;76.80;;;;;;5050924;28;20267;-70
2022/07/08 12:39:43;;;;;;;;;;;28.00;77.30;;;;;;5047561;28;20194;-70
2022/07/08 12:42:24;;;;;;;;;;;27.50;78.90;;;;;;5051645;28;20203;-70
2022/07/08 12:44:54;;;;;;;;;;;27.90;77.70;;;;;;5045958;28;20198;-71
2022/07/08 12:47:22;;;;;;;;;;;28.10;76.90;;;;;;5052286;28;20733;-71
2022/07/08 12:49:56;;;;;;;;;;;28.00;76.90;;;;;;5046013;28;20233;-71
2022/07/08 12:52:23;;;;;;;;;;;28.00;77.60;;;;;;5049397;28;20734;-70
2022/07/08 12:54:52;;;;;;;;;;;28.00;77.00;;;;;;5052628;28;20198;-72
2022/07/08 12:57:20;;;;;;;;;;;28.10;76.20;;;;;;5045752;28;20275;-70
2022/07/08 12:59:48;;;;;;;;;;;28.20;76.40;;;;;;5052351;28;20253;-70
2022/07/08 13:02:16;;;;;;;;;;;28.50;77.50;;;;;;5051706;28;20074;-70
2022/07/08 13:04:44;;;;;;;;;;;28.60;76.90;;;;;;5052037;28;20072;-71
2022/07/08 13:07:12;;;;;;;;;;;28.90;76.00;;;;;;5052282;28;20688;-69
2022/07/08 13:09:40;;;;;;;;;;;28.90;75.20;;;;;;5051711;28;20729;-70
2022/07/08 13:12:09;;;;;;;;;;;29.50;75.60;;;;;;5052114;28;20202;-72
2022/07/08 13:14:37;;;;;;;;;;;29.30;74.70;;;;;;5052030;28;20240;-70
2022/07/08 13:17:06;;;;;;;;;;;29.40;74.80;;;;;;5052035;28;20281;-71
2022/07/08 13:19:34;;;;;;;;;;;29.70;74.60;;;;;;5050021;28;20198;-70
2022/07/08 13:22:03;;;;;;;;;;;30.00;74.50;;;;;;5051767;28;20194;-70
2022/07/08 13:24:30;;;;;;;;;;;30.60;74.30;;;;;;5051665;28;20252;-70
2022/07/08 13:26:58;;;;;;;;;;;30.80;73.70;;;;;;5051705;28;20206;-70
2022/07/08 13:29:27;;;;;;;;;;;31.20;72.90;;;;;;5051004;28;20194;-70
2022/07/08 13:31:55;;;;;;;;;;;31.10;72.40;;;;;;5050274;28;20203;-69
2022/07/08 13:34:23;;;;;;;;;;;31.30;72.80;;;;;;5051485;28;20198;-71
2022/07/08 13:36:51;;;;;;;;;;;31.20;73.50;;;;;;5050871;28;20623;-70
2022/07/08 13:39:18;;;;;;;;;;;31.00;72.60;;;;;;5046743;28;20236;-69
2022/07/08 13:41:47;;;;;;;;;;;30.60;72.50;;;;;;5051283;28;20729;-70
2022/07/08 13:44:15;;;;;;;;;;;30.60;72.50;;;;;;5050505;28;20264;-70
2022/07/08 13:46:44;;;;;;;;;;;30.70;73.90;;;;;;5075169;22;20729;-63
2022/07/08 13:49:12;;;;;;;;;;;30.90;73.70;;;;;;5048805;28;20199;-64
2022/07/08 13:51:39;;;;;;;;;;;30.90;72.60;;;;;;5041196;28;20256;-65
2022/07/08 13:54:07;;;;;;;;;;;30.90;72.00;;;;;;5051008;28;20210;-64
2022/07/08 13:56:35;;;;;;;;;;;30.90;72.10;;;;;;5050939;28;20249;-64
2022/07/08 13:59:03;;;;;;;;;;;30.90;72.90;;;;;;5051098;28;20198;-63
2022/07/08 14:01:31;;;;;;;;;;;30.70;73.20;;;;;;5051548;28;20252;-64
2022/07/08 14:04:00;;;;;;;;;;;31.10;73.10;;;;;;5050937;28;20213;-63
2022/07/08 14:06:28;;;;;;;;;;;31.40;71.30;;;;;;5050765;28;20713;-64
2022/07/08 14:08:56;;;;;;;;;;;30.80;73.50;;;;;;5050651;28;20205;-65
2022/07/08 14:11:24;;;;;;;;;;;30.40;72.30;;;;;;5051381;28;20255;-65
2022/07/08 14:13:52;;;;;;;;;;;30.70;72.00;;;;;;5045344;28;20244;-64
2022/07/08 14:16:20;;;;;;;;;;;31.10;72.00;;;;;;5050835;28;20617;-64
2022/07/08 14:18:48;;;;;;;;;;;31.30;72.00;;;;;;5050604;28;20671;-62
2022/07/08 14:21:17;;;;;;;;;;;31.00;71.90;;;;;;5050673;28;20583;-63
2022/07/08 14:23:45;;;;;;;;;;;30.80;71.70;;;;;;5050929;28;20205;-63
2022/07/08 14:26:14;;;;;;;;;;;30.30;72.60;;;;;;5050113;28;20248;-62
2022/07/08 14:28:42;;;;;;;;;;;30.30;72.80;;;;;;5050919;28;20208;-63